createdAt,value
2018-04-24T00:00:06.729Z,101268.94
2018-04-24T00:05:01.100Z,101264.16
2018-04-24T00:09:55.835Z,101260.72
2018-04-24T00:14:50.409Z,101264.81
2018-04-24T00:19:44.752Z,101265.77
2018-04-24T00:24:39.354Z,101266.83
2018-04-24T00:29:34.773Z,101267.08
2018-04-24T00:34:29.179Z,101263.02
2018-04-24T00:39:23.680Z,101253.98
2018-04-24T00:44:18.025Z,101257.95
2018-04-24T00:49:12.368Z,101250.57
2018-04-24T00:54:06.729Z,101244.38
2018-04-24T00:59:01.110Z,101228.27
2018-04-24T01:03:55.534Z,101224.65
2018-04-24T01:09:01.388Z,101221.98
2018-04-24T01:13:56.606Z,101228.91
2018-04-24T01:18:51.734Z,101227.50
2018-04-24T01:23:46.632Z,101220.39
2018-04-24T01:28:41.776Z,101236.45
2018-04-24T01:33:36.909Z,101240.26
2018-04-24T01:38:31.275Z,101241.09
2018-04-24T01:43:25.642Z,101253.69
2018-04-24T01:48:20.142Z,101248.62
2018-04-24T01:53:14.539Z,101248.45
2018-04-24T01:58:09.021Z,101238.09
2018-04-24T02:03:03.404Z,101233.77
2018-04-24T02:07:58.546Z,101225.47
2018-04-24T02:12:53.011Z,101222.47
2018-04-24T02:17:47.384Z,101230.77
2018-04-24T02:22:42.039Z,101220.66
2018-04-24T02:27:37.276Z,101224.63
2018-04-24T02:32:31.616Z,101214.30
2018-04-24T02:37:25.975Z,101210.87
2018-04-24T02:42:21.140Z,101217.20
2018-04-24T02:47:15.664Z,101225.01
2018-04-24T02:52:10.032Z,101221.27
2018-04-24T02:57:04.405Z,101232.47
2018-04-24T03:01:59.798Z,101205.64
2018-04-24T03:06:53.923Z,101199.52
2018-04-24T03:11:49.169Z,101203.64
2018-04-24T03:16:44.513Z,101196.31
2018-04-24T03:21:38.880Z,101205.57
2018-04-24T03:26:34.017Z,101209.84
2018-04-24T03:31:28.373Z,101218.91
2018-04-24T03:36:22.916Z,101212.28
2018-04-24T03:41:18.066Z,101206.14
2018-04-24T03:46:12.450Z,101192.69
2018-04-24T03:51:06.796Z,101194.92
2018-04-24T03:56:01.381Z,101191.01
2018-04-24T04:00:55.936Z,101198.53
2018-04-24T04:05:50.305Z,101198.73
2018-04-24T04:10:44.690Z,101196.02
2018-04-24T04:15:39.056Z,101202.27
2018-04-24T04:20:51.527Z,101197.98
2018-04-24T04:25:46.016Z,101187.83
2018-04-24T04:30:40.347Z,101191.78
2018-04-24T04:35:34.707Z,101192.62
2018-04-24T04:40:29.853Z,101184.72
2018-04-24T04:45:24.228Z,101184.17
2018-04-24T04:50:20.309Z,101186.67
2018-04-24T04:55:15.159Z,101185.16
2018-04-24T05:00:09.643Z,101191.11
2018-04-24T05:05:03.770Z,101192.57
2018-04-24T05:09:58.941Z,101205.52
2018-04-24T05:14:53.347Z,101219.78
2018-04-24T05:19:47.950Z,101225.89
2018-04-24T05:24:42.332Z,101231.20
2018-04-24T05:29:36.681Z,101233.23
2018-04-24T05:34:31.106Z,101232.67
2018-04-24T05:39:25.502Z,101235.45
2018-04-24T05:44:20.069Z,101244.95
2018-04-24T05:49:14.411Z,101257.07
2018-04-24T05:54:08.800Z,101258.78
2018-04-24T05:59:03.176Z,101262.97
2018-04-24T06:03:57.990Z,101251.45
2018-04-24T06:08:52.361Z,101250.80
2018-04-24T06:13:47.495Z,101248.91
2018-04-24T06:18:42.011Z,101243.56
2018-04-24T06:23:36.378Z,101237.57
2018-04-24T06:28:30.909Z,101243.98
2018-04-24T06:33:25.419Z,101243.56
2018-04-24T06:38:19.963Z,101238.66
2018-04-24T06:43:14.784Z,101249.26
2018-04-24T06:48:09.368Z,101250.02
2018-04-24T06:53:04.797Z,101245.81
2018-04-24T06:57:59.242Z,101247.28
2018-04-24T07:02:54.381Z,101248.00
2018-04-24T07:07:49.554Z,101241.66
2018-04-24T07:12:44.174Z,101246.87
2018-04-24T07:17:40.082Z,101249.72
2018-04-24T07:22:34.523Z,101242.44
2018-04-24T07:27:28.886Z,101239.84
2018-04-24T07:32:23.901Z,101230.66
2018-04-24T07:37:18.280Z,101230.50
2018-04-24T07:42:13.438Z,101226.14
2018-04-24T07:47:08.268Z,101227.90
2018-04-24T07:52:02.664Z,101225.73
2018-04-24T07:56:57.057Z,101226.06
2018-04-24T08:01:51.552Z,101235.31
2018-04-24T08:06:46.058Z,101238.02
2018-04-24T08:11:40.438Z,101241.75
2018-04-24T08:16:35.195Z,101237.16
2018-04-24T08:21:32.242Z,101241.76
2018-04-24T08:26:26.868Z,101242.53
2018-04-24T08:31:21.405Z,101243.78
2018-04-24T08:36:16.583Z,101243.28
2018-04-24T08:41:10.938Z,101237.02
2018-04-24T08:46:05.978Z,101244.14
2018-04-24T08:51:01.338Z,101250.28
2018-04-24T08:55:56.994Z,101260.14
2018-04-24T09:00:51.340Z,101251.97
2018-04-24T09:05:45.463Z,101264.07
2018-04-24T09:10:40.038Z,101265.11
2018-04-24T09:15:34.412Z,101273.83
2018-04-24T09:20:29.704Z,101270.53
2018-04-24T09:25:24.042Z,101270.72
2018-04-24T09:30:19.174Z,101275.92
2018-04-24T09:35:19.792Z,101268.07
2018-04-24T09:40:14.322Z,101270.75
2018-04-24T09:45:09.441Z,101278.69
2018-04-24T09:50:04.600Z,101279.67
2018-04-24T09:54:58.957Z,101282.31
2018-04-24T09:59:54.150Z,101279.59
2018-04-24T10:04:48.527Z,101276.50
2018-04-24T10:09:42.976Z,101271.77
2018-04-24T10:14:37.352Z,101265.49
2018-04-24T10:19:31.764Z,101264.67
2018-04-24T10:24:26.147Z,101266.41
2018-04-24T10:29:20.566Z,101257.07
2018-04-24T10:34:14.912Z,101257.96
2018-04-24T10:39:10.267Z,101244.28
2018-04-24T10:44:04.645Z,101253.91
2018-04-24T10:48:59.024Z,101248.35
2018-04-24T10:53:53.449Z,101238.23
2018-04-24T10:58:48.582Z,101218.98
2018-04-24T11:03:43.131Z,101205.36
2018-04-24T11:08:37.830Z,101199.69
2018-04-24T11:13:32.249Z,101197.61
2018-04-24T11:18:26.802Z,101189.78
2018-04-24T11:23:21.996Z,101185.06
2018-04-24T11:28:16.368Z,101179.44
2018-04-24T11:33:10.862Z,101163.29
2018-04-24T11:38:05.249Z,101166.80
2018-04-24T11:42:59.760Z,101157.55
2018-04-24T11:47:54.147Z,101152.83
2018-04-24T11:52:49.284Z,101157.45
2018-04-24T11:57:43.673Z,101156.96
2018-04-24T12:02:39.046Z,101151.89
2018-04-24T12:07:33.600Z,101154.36
2018-04-24T12:12:28.011Z,101162.95
2018-04-24T12:17:22.377Z,101160.07
2018-04-24T12:22:17.108Z,101161.14
2018-04-24T12:27:12.253Z,101150.16
2018-04-24T12:32:06.650Z,101154.85
2018-04-24T12:37:01.016Z,101145.07
2018-04-24T12:41:55.375Z,101139.81
2018-04-24T12:46:49.910Z,101131.86
2018-04-24T12:51:44.351Z,101127.02
2018-04-24T12:56:38.876Z,101122.45
2018-04-24T13:01:33.294Z,101118.49
2018-04-24T13:06:27.651Z,101117.26
2018-04-24T13:11:22.784Z,101122.38
2018-04-24T13:16:17.910Z,101124.19
2018-04-24T13:21:13.044Z,101122.48
2018-04-24T13:26:07.402Z,101117.98
2018-04-24T13:31:01.891Z,101100.05
2018-04-24T13:35:56.250Z,101090.34
2018-04-24T13:40:50.717Z,101082.14
2018-04-24T13:45:45.200Z,101079.75
2018-04-24T13:50:40.472Z,101065.49
2018-04-24T13:55:35.770Z,101062.65
2018-04-24T14:00:30.132Z,101057.71
2018-04-24T14:05:25.268Z,101056.78
2018-04-24T14:10:19.724Z,101045.02
2018-04-24T14:15:14.188Z,101042.78
2018-04-24T14:20:11.328Z,101029.43
2018-04-24T14:25:05.712Z,101025.44
2018-04-24T14:30:00.088Z,101016.03
2018-04-24T14:34:55.214Z,101012.59
2018-04-24T14:39:50.374Z,101021.51
2018-04-24T14:44:44.777Z,101008.91
2018-04-24T14:49:39.220Z,101008.05
2018-04-24T14:54:33.610Z,101005.73
2018-04-24T14:59:28.013Z,100998.88
2018-04-24T15:04:22.726Z,100992.30
2018-04-24T15:09:17.105Z,100989.28
2018-04-24T15:14:11.477Z,100980.68
2018-04-24T15:19:06.023Z,100976.23
2018-04-24T15:24:00.387Z,100964.30
2018-04-24T15:28:54.762Z,100959.28
2018-04-24T15:33:49.219Z,100947.48
2018-04-24T15:38:43.911Z,100939.13
2018-04-24T15:43:38.793Z,100927.73
2018-04-24T15:48:34.087Z,100917.20
2018-04-24T15:53:28.487Z,100913.80
2018-04-24T15:58:22.864Z,100908.85
2018-04-24T16:03:17.550Z,100902.50
2018-04-24T16:08:12.700Z,100904.52
2018-04-24T16:13:07.080Z,100901.08
2018-04-24T16:18:01.814Z,100911.39
2018-04-24T16:22:56.297Z,100912.30
2018-04-24T16:27:50.968Z,100909.41
2018-04-24T16:32:46.145Z,100900.95
2018-04-24T16:37:40.700Z,100901.81
2018-04-24T16:42:35.077Z,100907.23
2018-04-24T16:47:29.590Z,100895.11
2018-04-24T16:52:24.745Z,100889.23
2018-04-24T16:57:19.946Z,100890.99
2018-04-24T17:02:15.245Z,100872.05
2018-04-24T17:07:09.651Z,100855.52
2018-04-24T17:12:04.230Z,100853.64
2018-04-24T17:16:58.612Z,100857.80
2018-04-24T17:21:53.840Z,100865.98
2018-04-24T17:26:49.008Z,100856.48
2018-04-24T17:31:43.495Z,100852.86
2018-04-24T17:36:37.858Z,100857.61
2018-04-24T17:41:32.976Z,100847.69
2018-04-24T17:46:28.268Z,100844.73
2018-04-24T17:51:22.625Z,100842.16
2018-04-24T17:56:17.164Z,100833.37
2018-04-24T18:01:11.316Z,100828.24
2018-04-24T18:06:06.838Z,100820.02
2018-04-24T18:11:02.252Z,100819.52
2018-04-24T18:15:56.768Z,100818.70
2018-04-24T18:20:51.127Z,100817.15
2018-04-24T18:25:45.535Z,100821.55
2018-04-24T18:30:39.690Z,100820.00
2018-04-24T18:35:34.838Z,100816.25
2018-04-24T18:40:29.358Z,100810.65
2018-04-24T18:45:23.956Z,100806.97
2018-04-24T18:50:18.545Z,100800.03
2018-04-24T18:55:12.697Z,100801.59
2018-04-24T19:00:07.076Z,100801.11
2018-04-24T19:05:01.560Z,100796.87
2018-04-24T19:09:56.100Z,100796.37
2018-04-24T19:14:50.474Z,100798.62
2018-04-24T19:19:44.896Z,100792.31
2018-04-24T19:24:46.888Z,100795.42
2018-04-24T19:29:41.256Z,100793.95
2018-04-24T19:34:35.623Z,100792.73
2018-04-24T19:39:35.948Z,100791.16
2018-04-24T19:44:32.882Z,100795.16
2018-04-24T19:49:41.369Z,100792.92
2018-04-24T19:54:36.351Z,100792.44
2018-04-24T19:59:31.023Z,100789.77
2018-04-24T20:04:25.423Z,100786.18
2018-04-24T20:09:20.164Z,100780.41
2018-04-24T20:14:16.938Z,100769.70
2018-04-24T20:19:11.336Z,100764.78
2018-04-24T20:24:05.697Z,100767.45
2018-04-24T20:29:00.092Z,100755.89
2018-04-24T20:33:54.511Z,100753.66
2018-04-24T20:38:49.069Z,100755.34
2018-04-24T20:43:44.753Z,100745.12
2018-04-24T20:48:39.401Z,100738.98
2018-04-24T20:53:36.216Z,100727.03
2018-04-24T20:58:31.041Z,100719.92
2018-04-24T21:03:26.538Z,100722.52
2018-04-24T21:08:21.107Z,100713.66
2018-04-24T21:13:16.611Z,100705.81
2018-04-24T21:18:11.612Z,100704.15
2018-04-24T21:23:05.746Z,100697.25
2018-04-24T21:28:00.123Z,100693.92
2018-04-24T21:32:54.286Z,100686.64
2018-04-24T21:37:48.676Z,100682.47
2018-04-24T21:42:43.820Z,100676.30
2018-04-24T21:47:38.217Z,100668.38
2018-04-24T21:52:32.891Z,100663.98
2018-04-24T21:57:28.484Z,100650.92
2018-04-24T22:02:23.014Z,100649.80
2018-04-24T22:07:17.861Z,100637.91
2018-04-24T22:12:13.175Z,100629.68
2018-04-24T22:17:07.550Z,100630.59
2018-04-24T22:22:02.657Z,100618.40
2018-04-24T22:26:57.074Z,100613.32
2018-04-24T22:31:51.859Z,100609.73
2018-04-24T22:36:46.242Z,100602.06
2018-04-24T22:41:40.642Z,100594.16
2018-04-24T22:46:35.012Z,100587.95
2018-04-24T22:51:29.392Z,100573.56
2018-04-24T22:56:23.777Z,100567.70
2018-04-24T23:01:18.320Z,100564.22
2018-04-24T23:06:12.857Z,100562.78
2018-04-24T23:11:24.964Z,100553.27
2018-04-24T23:16:37.055Z,100548.91
2018-04-24T23:21:29.878Z,100551.88
2018-04-24T23:26:24.262Z,100548.52
2018-04-24T23:31:19.418Z,100552.78
2018-04-24T23:36:13.897Z,100545.55
2018-04-24T23:41:08.259Z,100532.48
2018-04-24T23:46:02.659Z,100524.66
2018-04-24T23:50:57.030Z,100518.75
2018-04-24T23:55:51.409Z,100523.02
